createdAt,value
2023-03-31T00:01:13.757Z,11.40
2023-03-31T00:03:44.845Z,11.40
2023-03-31T00:06:18.710Z,11.60
2023-03-31T00:08:51.599Z,11.00
2023-03-31T00:11:22.534Z,10.60
2023-03-31T00:13:51.058Z,10.40
2023-03-31T00:16:19.903Z,9.50
2023-03-31T00:18:51.122Z,9.60
2023-03-31T00:21:33.942Z,9.00
2023-03-31T00:24:08.430Z,10.20
2023-03-31T00:26:38.326Z,10.30
2023-03-31T00:29:08.423Z,10.50
2023-03-31T00:31:36.652Z,10.00
2023-03-31T00:34:05.881Z,9.10
2023-03-31T00:36:36.875Z,10.00
2023-03-31T00:39:09.575Z,9.80
2023-03-31T00:41:39.288Z,9.50
2023-03-31T00:44:24.895Z,9.30
2023-03-31T00:47:11.602Z,10.60
2023-03-31T00:49:45.218Z,10.40
2023-03-31T00:54:49.510Z,7.40
2023-03-31T00:57:18.137Z,10.30
2023-03-31T00:59:59.222Z,9.90
2023-03-31T01:02:28.785Z,9.70
2023-03-31T01:05:02.288Z,9.60
2023-03-31T01:10:08.929Z,9.00
2023-03-31T01:12:42.469Z,8.40
2023-03-31T01:15:11.044Z,10.30
2023-03-31T01:17:40.887Z,9.40
2023-03-31T01:20:21.429Z,10.10
2023-03-31T01:23:08.891Z,10.20
2023-03-31T01:25:51.323Z,9.50
2023-03-31T01:28:33.624Z,9.40
2023-03-31T01:31:39.681Z,9.40
2023-03-31T01:34:29.721Z,9.70
2023-03-31T01:37:19.146Z,9.90
2023-03-31T01:40:08.637Z,9.60
2023-03-31T01:42:46.346Z,10.40
2023-03-31T01:45:27.240Z,9.80
2023-03-31T01:48:13.108Z,9.20
2023-03-31T01:51:06.765Z,8.80
2023-03-31T01:53:45.808Z,9.30
2023-03-31T01:56:39.150Z,9.10
2023-03-31T01:59:18.213Z,9.80
2023-03-31T02:01:56.533Z,9.20
2023-03-31T02:04:42.475Z,9.30
2023-03-31T02:07:17.633Z,8.40
2023-03-31T02:09:52.071Z,9.20
2023-03-31T02:12:22.598Z,9.20
2023-03-31T02:14:54.640Z,9.80
2023-03-31T02:17:30.541Z,9.40
2023-03-31T02:20:05.884Z,9.50
2023-03-31T02:22:37.736Z,9.40
2023-03-31T02:25:10.738Z,9.50
2023-03-31T02:27:43.267Z,10.30
2023-03-31T02:30:13.257Z,9.30
2023-03-31T02:32:43.542Z,9.10
2023-03-31T02:35:22.291Z,9.40
2023-03-31T02:37:50.669Z,9.80
2023-03-31T02:40:21.879Z,9.60
2023-03-31T02:42:50.652Z,9.70
2023-03-31T02:45:37.835Z,9.80
2023-03-31T02:48:09.900Z,10.70
2023-03-31T02:51:03.269Z,10.20
2023-03-31T02:53:59.006Z,10.10
2023-03-31T02:57:00.778Z,10.10
2023-03-31T02:59:47.219Z,10.60
2023-03-31T03:02:33.000Z,10.50
2023-03-31T03:05:27.762Z,10.30
2023-03-31T03:08:01.042Z,10.40
2023-03-31T03:10:39.401Z,10.70
2023-03-31T03:13:15.425Z,12.30
2023-03-31T03:15:50.774Z,10.30
2023-03-31T03:18:18.921Z,11.40
2023-03-31T03:20:49.341Z,11.00
2023-03-31T03:23:18.032Z,11.10
2023-03-31T03:25:47.088Z,11.60
2023-03-31T03:28:15.049Z,11.90
2023-03-31T03:30:42.901Z,10.80
2023-03-31T03:33:17.131Z,11.30
2023-03-31T03:35:45.400Z,10.50
2023-03-31T03:38:13.724Z,10.50
2023-03-31T03:40:41.525Z,11.20
2023-03-31T03:43:09.567Z,11.00
2023-03-31T03:45:37.637Z,11.70
2023-03-31T03:48:05.675Z,12.00
2023-03-31T03:50:36.669Z,11.20
2023-03-31T03:53:05.005Z,12.20
2023-03-31T03:55:32.977Z,11.80
2023-03-31T03:58:01.119Z,11.20
2023-03-31T04:00:28.873Z,11.90
2023-03-31T04:02:57.003Z,11.70
2023-03-31T04:05:25.122Z,11.30
2023-03-31T04:07:53.158Z,12.00
2023-03-31T04:10:21.072Z,11.80
2023-03-31T04:12:48.988Z,12.40
2023-03-31T04:15:16.894Z,12.90
2023-03-31T04:17:51.232Z,11.40
2023-03-31T04:20:19.231Z,11.80
2023-03-31T04:22:50.820Z,12.30
2023-03-31T04:25:18.782Z,13.50
2023-03-31T04:27:54.937Z,13.30
2023-03-31T04:30:24.511Z,12.40
2023-03-31T04:33:00.944Z,11.90
2023-03-31T04:35:51.657Z,13.20
2023-03-31T04:38:22.183Z,11.30
2023-03-31T04:40:52.101Z,12.90
2023-03-31T04:43:21.325Z,12.40
2023-03-31T04:45:49.165Z,12.40
2023-03-31T04:48:17.590Z,11.60
2023-03-31T04:50:47.060Z,12.80
2023-03-31T04:53:14.955Z,12.30
2023-03-31T04:55:42.774Z,12.20
2023-03-31T04:58:10.601Z,12.30
2023-03-31T05:00:38.476Z,11.40
2023-03-31T05:03:06.948Z,11.70
2023-03-31T05:05:35.010Z,12.20
2023-03-31T05:08:03.429Z,12.60
2023-03-31T05:10:32.059Z,11.80
2023-03-31T05:12:59.886Z,11.60
2023-03-31T05:15:27.754Z,10.30
2023-03-31T05:17:55.669Z,11.20
2023-03-31T05:20:24.306Z,11.10
2023-03-31T05:22:52.098Z,11.00
2023-03-31T05:25:19.899Z,11.50
2023-03-31T05:27:48.135Z,12.50
2023-03-31T05:30:17.459Z,11.80
2023-03-31T05:32:45.860Z,11.80
2023-03-31T05:35:13.714Z,12.10
2023-03-31T05:37:41.576Z,12.20
2023-03-31T05:40:10.958Z,11.20
2023-03-31T05:42:39.241Z,11.30
2023-03-31T05:45:09.231Z,11.10
2023-03-31T05:47:37.337Z,11.60
2023-03-31T05:50:09.121Z,11.30
2023-03-31T05:52:37.199Z,12.00
2023-03-31T05:55:05.310Z,11.30
2023-03-31T05:57:33.171Z,11.10
2023-03-31T06:00:01.123Z,12.10
2023-03-31T06:02:29.252Z,11.30
2023-03-31T06:04:58.145Z,10.80
2023-03-31T06:07:26.430Z,11.20
2023-03-31T06:09:54.302Z,12.00
2023-03-31T06:12:22.090Z,12.20
2023-03-31T06:14:49.860Z,11.50
2023-03-31T06:17:17.668Z,11.50
2023-03-31T06:19:46.227Z,11.00
2023-03-31T06:22:14.619Z,10.60
2023-03-31T06:24:42.402Z,9.70
2023-03-31T06:27:10.355Z,10.00
2023-03-31T06:29:38.170Z,12.70
2023-03-31T06:32:06.169Z,12.70
2023-03-31T06:34:34.754Z,11.10
2023-03-31T06:37:03.401Z,10.20
2023-03-31T06:39:31.458Z,10.50
2023-03-31T06:41:59.385Z,9.70
2023-03-31T06:44:27.264Z,9.30
2023-03-31T06:46:55.193Z,9.60
2023-03-31T06:49:23.555Z,9.20
2023-03-31T06:51:52.608Z,8.80
2023-03-31T06:54:20.441Z,9.20
2023-03-31T06:56:48.329Z,8.80
2023-03-31T06:59:16.373Z,9.80
2023-03-31T07:01:46.232Z,10.50
2023-03-31T07:04:14.923Z,9.40
2023-03-31T07:06:43.173Z,9.50
2023-03-31T07:09:10.978Z,9.30
2023-03-31T07:11:38.792Z,8.10
2023-03-31T07:14:06.766Z,8.60
2023-03-31T07:16:34.674Z,9.20
2023-03-31T07:19:04.643Z,9.70
2023-03-31T07:21:32.978Z,9.40
2023-03-31T07:24:00.809Z,8.30
2023-03-31T07:26:28.734Z,7.90
2023-03-31T07:28:57.575Z,10.10
2023-03-31T07:31:26.472Z,12.00
2023-03-31T07:33:54.866Z,9.40
2023-03-31T07:36:23.398Z,9.50
2023-03-31T07:38:51.425Z,8.10
2023-03-31T07:41:21.401Z,8.50
2023-03-31T07:43:50.647Z,9.90
2023-03-31T07:46:24.965Z,8.30
2023-03-31T07:48:55.090Z,8.40
2023-03-31T07:51:26.219Z,8.50
2023-03-31T07:53:54.066Z,8.80
2023-03-31T07:56:25.576Z,8.50
2023-03-31T07:58:56.806Z,8.80
2023-03-31T08:01:26.449Z,9.20
2023-03-31T08:03:56.209Z,10.30
2023-03-31T08:06:25.675Z,9.30
2023-03-31T08:08:53.621Z,8.40
2023-03-31T08:11:21.967Z,8.60
2023-03-31T08:13:50.435Z,9.10
2023-03-31T08:16:18.824Z,9.30
2023-03-31T08:18:47.326Z,8.30
2023-03-31T08:21:15.364Z,9.20
2023-03-31T08:23:43.166Z,7.80
2023-03-31T08:26:16.549Z,6.30
2023-03-31T08:28:49.092Z,7.60
2023-03-31T08:31:19.297Z,7.00
2023-03-31T08:33:48.193Z,7.50
2023-03-31T08:36:16.527Z,6.50
2023-03-31T08:38:49.819Z,5.70
2023-03-31T08:41:43.442Z,6.70
2023-03-31T08:44:18.106Z,6.90
2023-03-31T08:46:46.835Z,7.10
2023-03-31T08:49:18.483Z,6.90
2023-03-31T08:51:51.312Z,6.70
2023-03-31T08:54:25.774Z,5.90
2023-03-31T08:56:54.098Z,6.20
2023-03-31T08:59:34.419Z,6.80
2023-03-31T09:02:18.945Z,6.50
2023-03-31T09:04:56.473Z,6.00
2023-03-31T09:07:46.845Z,6.20
2023-03-31T09:10:51.213Z,6.00
2023-03-31T09:15:58.928Z,5.10
2023-03-31T09:18:38.721Z,5.90
2023-03-31T09:21:32.222Z,5.90
2023-03-31T09:24:08.580Z,5.60
2023-03-31T09:26:53.245Z,5.90
2023-03-31T09:29:37.508Z,4.80
2023-03-31T09:32:20.917Z,4.80
2023-03-31T09:34:54.533Z,4.50
2023-03-31T09:39:51.534Z,4.00
2023-03-31T09:42:19.448Z,4.20
2023-03-31T09:44:52.380Z,4.70
2023-03-31T09:47:30.164Z,4.50
2023-03-31T09:49:58.689Z,4.60
2023-03-31T09:52:28.404Z,5.50
2023-03-31T09:55:00.736Z,5.70
2023-03-31T09:57:35.165Z,5.20
2023-03-31T10:00:16.703Z,5.20
2023-03-31T10:02:51.851Z,5.20
2023-03-31T10:05:36.815Z,5.20
2023-03-31T10:08:17.882Z,5.00
2023-03-31T10:11:11.931Z,5.10
2023-03-31T10:16:12.868Z,6.50
2023-03-31T10:18:43.744Z,4.40
2023-03-31T10:21:35.592Z,4.90
2023-03-31T10:24:09.831Z,4.20
2023-03-31T10:26:39.930Z,4.40
2023-03-31T10:29:13.954Z,4.20
2023-03-31T10:31:42.526Z,4.80
2023-03-31T10:34:17.244Z,4.90
2023-03-31T10:36:52.105Z,4.30
2023-03-31T10:39:21.040Z,3.50
2023-03-31T10:41:52.217Z,4.50
2023-03-31T10:44:34.869Z,4.50
2023-03-31T10:47:07.010Z,4.70
2023-03-31T10:49:40.917Z,6.00
2023-03-31T10:52:19.917Z,4.50
2023-03-31T10:54:50.406Z,4.20
2023-03-31T10:57:21.141Z,4.20
2023-03-31T11:00:05.902Z,4.50
2023-03-31T11:02:40.310Z,4.30
2023-03-31T11:05:30.535Z,3.50
2023-03-31T11:08:36.535Z,4.00
2023-03-31T11:11:05.103Z,3.60
2023-03-31T11:13:59.292Z,3.20
2023-03-31T11:19:53.718Z,5.90
2023-03-31T11:22:31.527Z,4.90
2023-03-31T11:25:10.310Z,4.80
2023-03-31T11:28:10.564Z,4.70
2023-03-31T11:31:13.720Z,4.90
2023-03-31T11:34:08.401Z,4.80
2023-03-31T11:36:42.799Z,4.30
2023-03-31T11:39:29.500Z,4.00
2023-03-31T11:42:25.353Z,4.20
2023-03-31T11:45:00.461Z,5.20
2023-03-31T11:47:37.926Z,5.30
2023-03-31T11:50:22.104Z,5.40
2023-03-31T11:53:12.773Z,5.40
2023-03-31T11:55:41.792Z,5.40
2023-03-31T11:58:43.110Z,6.10
2023-03-31T12:01:14.645Z,7.70
2023-03-31T12:04:11.755Z,6.60
2023-03-31T12:06:43.015Z,4.90
2023-03-31T12:09:39.217Z,5.10
2023-03-31T12:12:28.478Z,5.30
2023-03-31T12:15:11.413Z,5.60
2023-03-31T12:17:43.571Z,5.20
2023-03-31T12:20:38.014Z,6.50
2023-03-31T12:23:15.086Z,5.20
2023-03-31T12:26:02.177Z,6.70
2023-03-31T12:28:33.752Z,6.10
2023-03-31T12:31:06.103Z,12.20
2023-03-31T12:33:40.863Z,17.60
2023-03-31T12:36:22.483Z,18.60
2023-03-31T12:39:09.090Z,11.90
2023-03-31T12:41:56.494Z,9.70
2023-03-31T12:44:46.636Z,8.70
2023-03-31T12:47:21.521Z,9.70
2023-03-31T12:50:02.873Z,8.60
2023-03-31T12:52:58.673Z,8.30
2023-03-31T12:55:36.171Z,7.80
2023-03-31T12:58:22.568Z,6.20
2023-03-31T13:01:14.528Z,7.10
2023-03-31T13:03:52.662Z,6.70
2023-03-31T13:06:30.046Z,6.80
2023-03-31T13:09:13.153Z,7.80
2023-03-31T13:11:47.811Z,6.50
2023-03-31T13:14:20.315Z,7.00
2023-03-31T13:16:49.887Z,6.70
2023-03-31T13:19:35.091Z,6.30
2023-03-31T13:22:06.229Z,7.60
2023-03-31T13:24:35.598Z,7.80
2023-03-31T13:27:32.894Z,7.60
2023-03-31T13:30:00.877Z,8.00
2023-03-31T13:32:29.411Z,8.10
2023-03-31T13:35:21.731Z,8.10
2023-03-31T13:38:11.599Z,8.10
2023-03-31T13:40:56.110Z,8.30
2023-03-31T13:43:57.816Z,7.50
2023-03-31T13:46:31.976Z,7.60
2023-03-31T13:49:38.637Z,7.00
2023-03-31T13:52:12.613Z,7.80
2023-03-31T13:55:07.585Z,8.00
2023-03-31T13:57:38.725Z,8.30
2023-03-31T14:00:17.099Z,7.30
2023-03-31T14:03:24.473Z,8.60
2023-03-31T14:06:29.898Z,8.60
2023-03-31T14:09:07.176Z,8.60
2023-03-31T14:11:35.896Z,9.20
2023-03-31T14:14:16.210Z,9.90
2023-03-31T14:16:52.777Z,11.80
2023-03-31T14:19:27.508Z,12.70
2023-03-31T14:22:21.284Z,13.30
2023-03-31T14:25:03.401Z,9.30
2023-03-31T14:27:34.060Z,9.80
2023-03-31T14:30:29.806Z,10.40
2023-03-31T14:33:03.511Z,12.50
2023-03-31T14:35:43.035Z,11.30
2023-03-31T14:38:18.172Z,10.60
2023-03-31T14:40:50.168Z,11.00
2023-03-31T14:43:30.431Z,11.80
2023-03-31T14:46:04.385Z,12.60
2023-03-31T14:48:34.727Z,12.60
2023-03-31T14:51:04.037Z,13.20
2023-03-31T14:53:31.974Z,12.10
2023-03-31T14:56:09.682Z,11.40
2023-03-31T14:58:44.900Z,12.60
2023-03-31T15:01:19.060Z,10.70
2023-03-31T15:03:48.252Z,11.60
2023-03-31T15:06:16.525Z,10.90
2023-03-31T15:08:45.983Z,10.60
2023-03-31T15:11:19.554Z,11.00
2023-03-31T15:14:05.412Z,10.70
2023-03-31T15:16:47.045Z,12.10
2023-03-31T15:19:19.169Z,11.60
2023-03-31T15:21:55.362Z,12.30
2023-03-31T15:24:24.104Z,12.40
2023-03-31T15:27:06.259Z,12.00
2023-03-31T15:29:42.368Z,13.00
2023-03-31T15:32:31.595Z,11.90
2023-03-31T15:35:11.053Z,11.90
2023-03-31T15:37:44.870Z,11.50
2023-03-31T15:40:22.512Z,12.80
2023-03-31T15:43:06.355Z,13.50
2023-03-31T15:45:48.036Z,11.90
2023-03-31T15:48:51.279Z,12.20
2023-03-31T15:51:35.766Z,12.70
2023-03-31T15:54:24.547Z,11.10
2023-03-31T15:56:59.616Z,11.10
2023-03-31T15:59:41.636Z,12.50
2023-03-31T16:02:19.009Z,14.50
2023-03-31T16:04:54.813Z,13.10
2023-03-31T16:07:30.135Z,12.90
2023-03-31T16:10:07.219Z,13.70
2023-03-31T16:12:48.834Z,14.40
2023-03-31T16:15:25.044Z,13.40
2023-03-31T16:17:57.746Z,13.60
2023-03-31T16:20:31.928Z,14.10
2023-03-31T16:23:00.551Z,13.80
2023-03-31T16:25:31.850Z,13.40
2023-03-31T16:28:02.161Z,13.00
2023-03-31T16:30:39.612Z,13.60
2023-03-31T16:33:10.549Z,16.10
2023-03-31T16:35:40.677Z,15.80
2023-03-31T16:38:16.235Z,19.10
2023-03-31T16:40:49.367Z,15.60
2023-03-31T16:43:30.115Z,15.50
2023-03-31T16:46:00.198Z,17.60
2023-03-31T16:48:30.561Z,15.10
2023-03-31T16:51:00.438Z,15.90
2023-03-31T16:53:31.228Z,15.80
2023-03-31T16:55:59.733Z,16.50
2023-03-31T16:58:29.053Z,16.00
2023-03-31T17:00:58.194Z,15.70
2023-03-31T17:03:27.607Z,15.40
2023-03-31T17:05:59.182Z,15.70
2023-03-31T17:08:28.199Z,15.00
2023-03-31T17:10:59.789Z,13.50
2023-03-31T17:13:28.152Z,16.60
2023-03-31T17:18:47.380Z,15.20
2023-03-31T17:21:20.157Z,17.30
2023-03-31T17:23:48.101Z,16.20
2023-03-31T17:26:18.038Z,16.70
2023-03-31T17:28:46.230Z,16.30
2023-03-31T17:31:16.861Z,16.60
2023-03-31T17:33:45.125Z,18.40
2023-03-31T17:36:13.467Z,18.80
2023-03-31T17:38:42.103Z,17.80
2023-03-31T17:41:13.070Z,17.00
2023-03-31T17:43:45.037Z,16.60
2023-03-31T17:46:13.745Z,18.50
2023-03-31T17:48:43.324Z,20.40
2023-03-31T17:51:15.095Z,19.70
2023-03-31T17:53:45.735Z,17.60
2023-03-31T17:56:15.668Z,18.00
2023-03-31T17:58:44.464Z,19.50
2023-03-31T18:01:13.701Z,17.70
2023-03-31T18:03:42.308Z,18.10
2023-03-31T18:06:12.957Z,19.20
2023-03-31T18:08:42.081Z,18.20
2023-03-31T18:11:10.101Z,17.00
2023-03-31T18:13:37.967Z,17.10
2023-03-31T18:16:09.671Z,16.40
2023-03-31T18:18:39.528Z,16.70
2023-03-31T18:21:10.304Z,19.90
2023-03-31T18:23:38.946Z,19.50
2023-03-31T18:26:08.547Z,18.10
2023-03-31T18:28:36.942Z,19.20
2023-03-31T18:31:06.183Z,17.90
2023-03-31T18:33:34.758Z,19.20
2023-03-31T18:36:03.595Z,17.80
2023-03-31T18:38:32.664Z,16.90
2023-03-31T18:41:00.489Z,17.00
2023-03-31T18:43:30.118Z,20.10
2023-03-31T18:46:01.363Z,20.80
2023-03-31T18:48:29.359Z,21.30
2023-03-31T18:50:58.386Z,23.40
2023-03-31T18:53:26.727Z,20.60
2023-03-31T18:55:57.775Z,23.60
2023-03-31T18:58:28.021Z,22.50
2023-03-31T19:00:57.687Z,22.00
2023-03-31T19:03:27.034Z,19.30
2023-03-31T19:06:04.786Z,17.50
2023-03-31T19:08:33.336Z,19.60
2023-03-31T19:11:04.910Z,16.90
2023-03-31T19:13:32.917Z,16.20
2023-03-31T19:16:01.018Z,15.90
2023-03-31T19:18:29.977Z,17.40
2023-03-31T19:21:01.757Z,17.90
2023-03-31T19:23:31.708Z,15.20
2023-03-31T19:25:59.795Z,17.80
2023-03-31T19:28:27.986Z,18.50
2023-03-31T19:30:56.824Z,16.80
2023-03-31T19:33:42.193Z,15.70
2023-03-31T19:36:27.342Z,19.90
2023-03-31T19:38:58.791Z,15.10
2023-03-31T19:41:41.392Z,17.00
2023-03-31T19:44:14.347Z,18.00
2023-03-31T19:46:46.027Z,16.30
2023-03-31T19:49:18.072Z,15.70
2023-03-31T19:51:51.080Z,16.10
2023-03-31T19:54:26.962Z,15.70
2023-03-31T19:57:00.407Z,16.50
2023-03-31T19:59:44.774Z,16.30
2023-03-31T20:02:18.540Z,16.40
2023-03-31T20:04:57.751Z,15.90
2023-03-31T20:07:32.295Z,13.20
2023-03-31T20:10:04.084Z,14.10
2023-03-31T20:12:43.739Z,13.30
2023-03-31T20:15:19.808Z,14.40
2023-03-31T20:17:51.468Z,13.60
2023-03-31T20:20:22.995Z,14.70
2023-03-31T20:22:52.479Z,16.00
2023-03-31T20:25:29.043Z,15.60
2023-03-31T20:27:57.607Z,14.60
2023-03-31T20:30:26.695Z,15.40
2023-03-31T20:32:54.690Z,15.80
2023-03-31T20:35:25.589Z,14.80
2023-03-31T20:37:54.425Z,14.20
2023-03-31T20:40:32.883Z,15.80
2023-03-31T20:43:01.917Z,15.60
2023-03-31T20:45:32.990Z,15.20
2023-03-31T20:48:02.318Z,16.80
2023-03-31T20:50:37.186Z,14.90
2023-03-31T20:53:05.758Z,16.70
2023-03-31T20:55:34.207Z,15.80
2023-03-31T20:58:02.021Z,14.30
2023-03-31T21:00:30.242Z,14.70
2023-03-31T21:02:58.586Z,15.40
2023-03-31T21:05:26.761Z,15.80
2023-03-31T21:07:54.534Z,15.60
2023-03-31T21:10:25.827Z,15.40
2023-03-31T21:12:54.420Z,17.60
2023-03-31T21:15:22.554Z,16.40
2023-03-31T21:17:51.114Z,16.70
2023-03-31T21:20:18.955Z,16.90
2023-03-31T21:22:49.448Z,17.30
2023-03-31T21:25:26.412Z,17.70
2023-03-31T21:27:54.902Z,16.70
2023-03-31T21:30:22.971Z,16.40
2023-03-31T21:32:50.794Z,16.10
2023-03-31T21:35:19.678Z,16.40
2023-03-31T21:37:48.162Z,14.40
2023-03-31T21:40:16.841Z,16.40
2023-03-31T21:42:44.831Z,12.70
2023-03-31T21:45:13.484Z,16.10
2023-03-31T21:47:41.339Z,14.30
2023-03-31T21:50:11.206Z,15.10
2023-03-31T21:52:39.635Z,15.30
2023-03-31T21:55:07.903Z,14.60
2023-03-31T21:57:35.771Z,15.50
2023-03-31T22:00:06.260Z,15.40
2023-03-31T22:02:34.154Z,14.50
2023-03-31T22:05:03.851Z,14.00
2023-03-31T22:07:42.170Z,14.10
2023-03-31T22:10:10.797Z,15.60
2023-03-31T22:12:39.493Z,16.30
2023-03-31T22:15:07.816Z,13.70
2023-03-31T22:17:35.796Z,14.90
2023-03-31T22:20:05.105Z,15.50
2023-03-31T22:22:34.167Z,14.00
2023-03-31T22:25:01.937Z,15.50
2023-03-31T22:27:29.731Z,15.70
2023-03-31T22:29:57.661Z,14.60
2023-03-31T22:32:25.630Z,15.10
2023-03-31T22:34:53.807Z,14.40
2023-03-31T22:37:21.648Z,14.30
2023-03-31T22:39:49.454Z,14.50
2023-03-31T22:42:17.661Z,14.40
2023-03-31T22:44:45.489Z,13.80
2023-03-31T22:47:13.561Z,13.20
2023-03-31T22:49:41.572Z,15.10
2023-03-31T22:52:09.422Z,13.80
2023-03-31T22:54:37.243Z,13.40
2023-03-31T22:57:05.306Z,13.90
2023-03-31T22:59:33.903Z,11.80
2023-03-31T23:02:02.434Z,12.70
2023-03-31T23:04:34.176Z,12.50
2023-03-31T23:07:02.045Z,11.10
2023-03-31T23:09:29.878Z,12.70
2023-03-31T23:11:57.646Z,11.60
2023-03-31T23:14:25.540Z,14.00
2023-03-31T23:16:55.084Z,12.70
2023-03-31T23:19:24.318Z,14.20
2023-03-31T23:21:52.713Z,11.90
2023-03-31T23:24:21.380Z,12.70
2023-03-31T23:26:49.210Z,13.20
2023-03-31T23:29:16.996Z,12.40
2023-03-31T23:31:45.320Z,12.80
2023-03-31T23:34:14.180Z,12.30
2023-03-31T23:36:42.366Z,14.10
2023-03-31T23:39:10.734Z,13.30
2023-03-31T23:41:38.627Z,12.70
2023-03-31T23:44:06.975Z,12.50
2023-03-31T23:46:36.341Z,12.40
2023-03-31T23:49:05.130Z,12.60
2023-03-31T23:51:33.057Z,11.20
2023-03-31T23:54:01.318Z,11.50
2023-03-31T23:56:29.587Z,12.10
2023-03-31T23:58:57.453Z,10.80
